createdAt,value
2022-09-05T03:02:31.269Z,13.80
2022-09-05T03:05:25.265Z,13.40
2022-09-05T03:08:25.258Z,13.40
2022-09-05T03:11:42.924Z,13.30
2022-09-05T03:15:18.798Z,13.30
2022-09-05T03:18:48.611Z,13.30
2022-09-05T03:22:05.169Z,13.30
2022-09-05T03:25:48.853Z,13.30
2022-09-05T03:29:18.262Z,13.20
2022-09-05T03:32:34.492Z,13.10
2022-09-05T03:36:19.953Z,13.10
2022-09-05T03:39:47.642Z,13.00
2022-09-05T03:42:57.261Z,13.00
2022-09-05T03:46:05.145Z,13.00
2022-09-05T03:49:50.203Z,12.90
2022-09-05T03:57:06.519Z,12.90
2022-09-05T03:57:15.589Z,13.00
2022-09-05T03:59:52.673Z,13.00
2022-09-05T04:07:00.401Z,12.90
2022-09-05T04:08:19.557Z,12.90
2022-09-05T04:09:43.492Z,12.90
2022-09-05T04:12:38.469Z,12.80
2022-09-05T04:15:39.560Z,12.80
2022-09-05T04:18:34.985Z,12.80
2022-09-05T04:21:28.730Z,12.80
2022-09-05T04:24:28.591Z,12.90
2022-09-05T04:27:33.391Z,13.00
2022-09-05T04:30:39.589Z,12.90
2022-09-05T04:33:36.039Z,13.00
2022-09-05T04:36:29.327Z,13.00
2022-09-05T04:39:30.160Z,13.00
2022-09-05T04:42:23.761Z,13.10
2022-09-05T04:45:17.890Z,13.20
2022-09-05T04:48:20.149Z,13.10
2022-09-05T04:51:22.237Z,13.10
2022-09-05T04:54:30.214Z,13.10
2022-09-05T04:57:24.486Z,13.20
2022-09-05T05:04:49.440Z,13.30
2022-09-05T05:06:10.309Z,13.30
2022-09-05T05:06:46.567Z,13.40
2022-09-05T05:09:44.675Z,13.40
2022-09-05T05:17:55.479Z,13.50
2022-09-05T05:18:03.732Z,13.50
2022-09-05T05:19:21.908Z,13.40
2022-09-05T05:22:16.166Z,13.50
2022-09-05T05:25:12.717Z,13.60
2022-09-05T05:28:24.055Z,13.60
2022-09-05T05:31:17.055Z,13.80
2022-09-05T05:34:24.367Z,13.80
2022-09-05T05:37:20.477Z,14.00
2022-09-05T05:40:20.786Z,13.90
2022-09-05T05:43:17.024Z,14.00
2022-09-05T05:46:08.327Z,14.20
2022-09-05T05:49:09.765Z,14.20
2022-09-05T05:52:16.544Z,14.30
2022-09-05T05:55:50.218Z,14.30
2022-09-05T05:58:45.235Z,14.40
2022-09-05T06:02:20.638Z,14.40
2022-09-05T06:05:23.728Z,14.50
2022-09-05T06:14:13.686Z,14.60
2022-09-05T06:15:00.722Z,14.80
2022-09-05T06:15:57.451Z,14.90
2022-09-05T06:19:39.138Z,15.30
2022-09-05T06:23:33.485Z,16.20
2022-09-05T06:27:12.752Z,16.30
2022-09-05T06:30:07.017Z,16.20
2022-09-05T06:33:11.505Z,16.00
2022-09-05T06:36:16.652Z,15.80
2022-09-05T06:39:13.565Z,15.80
2022-09-05T06:42:36.708Z,15.80
2022-09-05T06:45:38.706Z,15.90
2022-09-05T06:48:45.783Z,15.90
2022-09-05T06:52:28.810Z,16.00
2022-09-05T06:55:50.232Z,16.00
2022-09-05T06:59:35.804Z,16.30
2022-09-05T07:02:59.354Z,16.60
2022-09-05T07:05:55.771Z,16.70
2022-09-05T07:08:54.170Z,17.00
2022-09-05T07:11:49.371Z,17.20
2022-09-05T07:14:47.729Z,17.40
2022-09-05T07:18:09.061Z,17.60
2022-09-05T07:21:16.609Z,17.40
2022-09-05T07:24:11.181Z,17.60
2022-09-05T07:27:02.025Z,17.80
2022-09-05T07:30:00.660Z,18.10
2022-09-05T07:32:52.958Z,18.10
2022-09-05T07:35:42.695Z,18.00
2022-09-05T07:38:45.613Z,18.00
2022-09-05T07:41:44.974Z,18.30
2022-09-05T07:44:37.280Z,18.60
2022-09-05T07:47:30.161Z,18.80
2022-09-05T07:51:13.619Z,19.00
2022-09-05T07:56:56.542Z,19.20
2022-09-05T07:57:00.086Z,19.40
2022-09-05T07:59:57.287Z,19.80
2022-09-05T08:02:50.237Z,20.10
2022-09-05T08:05:44.795Z,20.00
2022-09-05T08:09:18.103Z,20.10
2022-09-05T08:12:09.663Z,20.40
2022-09-05T08:15:10.232Z,20.90
2022-09-05T08:18:11.345Z,21.30
2022-09-05T08:21:04.559Z,21.20
2022-09-05T08:23:58.549Z,21.80
2022-09-05T08:26:51.300Z,22.20
2022-09-05T08:29:44.543Z,22.60
2022-09-05T08:32:40.425Z,22.70
2022-09-05T08:35:38.911Z,22.80
2022-09-05T08:38:28.872Z,23.40
2022-09-05T08:41:50.015Z,23.50
2022-09-05T08:46:40.130Z,23.50
2022-09-05T08:48:13.891Z,23.10
2022-09-05T08:51:33.101Z,23.40
2022-09-05T08:54:30.952Z,23.60
2022-09-05T08:57:27.477Z,23.30
2022-09-05T09:00:24.153Z,24.40
2022-09-05T09:03:22.504Z,24.00
2022-09-05T09:06:21.716Z,24.00
2022-09-05T09:09:17.195Z,23.60
2022-09-05T09:12:14.998Z,23.80
2022-09-05T09:15:11.389Z,24.50
2022-09-05T09:18:10.084Z,24.10
2022-09-05T09:21:01.671Z,22.90
2022-09-05T09:23:54.089Z,21.80
2022-09-05T09:26:51.339Z,21.10
2022-09-05T09:29:44.944Z,20.90
2022-09-05T09:32:43.506Z,20.40
2022-09-05T09:35:46.300Z,20.00
2022-09-05T09:38:46.992Z,20.00
2022-09-05T09:41:53.109Z,20.40
2022-09-05T09:45:27.489Z,20.20
2022-09-05T09:48:51.779Z,20.00
2022-09-05T09:52:04.330Z,20.10
2022-09-05T09:55:30.259Z,20.00
2022-09-05T09:58:58.502Z,19.70
2022-09-05T10:01:55.144Z,19.70
2022-09-05T10:10:46.167Z,19.70
2022-09-05T10:10:55.122Z,19.70
2022-09-05T10:12:35.142Z,19.50
2022-09-05T10:15:31.320Z,19.70
2022-09-05T10:18:37.018Z,19.80
2022-09-05T10:22:34.034Z,19.80
2022-09-05T10:25:19.011Z,19.80
2022-09-05T10:28:13.935Z,19.70
2022-09-05T10:34:49.044Z,19.60
2022-09-05T10:35:21.158Z,19.60
2022-09-05T10:37:42.289Z,19.40
2022-09-05T10:41:21.820Z,19.50
2022-09-05T10:43:50.834Z,19.60
2022-09-05T10:46:52.681Z,19.60
2022-09-05T10:49:45.091Z,19.60
2022-09-05T10:52:37.704Z,19.60
2022-09-05T10:55:31.279Z,19.80
2022-09-05T10:59:54.203Z,20.00
2022-09-05T11:02:27.234Z,19.70
2022-09-05T11:05:23.864Z,19.60
2022-09-05T11:08:21.268Z,19.70
2022-09-05T11:11:17.216Z,19.50
2022-09-05T11:14:36.754Z,19.60
2022-09-05T11:17:34.208Z,19.70
2022-09-05T11:20:54.072Z,19.80
2022-09-05T11:23:56.825Z,20.00
2022-09-05T11:27:13.803Z,19.80
2022-09-05T11:30:05.422Z,19.60
2022-09-05T11:39:51.149Z,19.80
2022-09-05T11:39:51.442Z,19.80
2022-09-05T11:40:29.182Z,19.80
2022-09-05T11:43:45.457Z,19.90
2022-09-05T11:46:41.375Z,19.70
2022-09-05T11:49:47.457Z,19.70
2022-09-05T11:53:13.721Z,19.80
2022-09-05T11:56:39.662Z,19.80
2022-09-05T12:00:17.194Z,20.00
2022-09-05T12:03:58.966Z,19.80
2022-09-05T12:07:37.421Z,20.00
2022-09-05T12:10:47.257Z,20.00
2022-09-05T12:13:47.157Z,19.90
2022-09-05T12:16:48.494Z,20.00
2022-09-05T12:19:42.516Z,20.10
2022-09-05T12:22:34.256Z,20.20
2022-09-05T12:29:33.003Z,20.20
2022-09-05T12:33:35.301Z,20.00
2022-09-05T12:36:11.065Z,20.10
2022-09-05T12:40:58.415Z,20.10
2022-09-05T12:41:41.714Z,20.20
2022-09-05T12:42:11.335Z,19.90
2022-09-05T12:45:14.434Z,19.80
2022-09-05T12:48:13.423Z,19.90
2022-09-05T12:51:06.461Z,19.70
2022-09-05T12:53:58.800Z,19.70
2022-09-05T13:00:41.166Z,19.70
2022-09-05T13:03:05.900Z,19.80
2022-09-05T13:03:29.855Z,19.90
2022-09-05T13:06:25.790Z,19.90
2022-09-05T13:10:54.022Z,19.90
2022-09-05T13:14:56.211Z,19.90
2022-09-05T13:15:56.895Z,19.90
2022-09-05T13:18:47.129Z,19.80
2022-09-05T13:21:39.674Z,19.80
2022-09-05T13:24:37.014Z,19.80
2022-09-05T13:27:32.121Z,19.80
2022-09-05T13:32:32.011Z,19.80
2022-09-05T13:38:06.456Z,19.70
2022-09-05T13:38:29.060Z,19.80
2022-09-05T13:40:04.800Z,19.80
2022-09-05T13:43:12.072Z,19.90
2022-09-05T13:46:11.801Z,19.90
2022-09-05T13:49:30.856Z,20.00
2022-09-05T13:52:29.287Z,19.90
2022-09-05T13:55:23.402Z,19.80
2022-09-05T13:58:18.608Z,19.80
2022-09-05T14:01:37.060Z,19.70
2022-09-05T14:05:06.549Z,19.70
2022-09-05T14:08:33.635Z,19.70
2022-09-05T14:11:47.253Z,19.80
2022-09-05T14:18:01.636Z,19.80
2022-09-05T14:21:17.470Z,19.80
2022-09-05T14:24:15.071Z,19.90
2022-09-05T14:27:15.252Z,19.90
2022-09-05T14:30:19.688Z,20.00
2022-09-05T14:37:40.628Z,19.70
2022-09-05T14:37:48.903Z,19.80
2022-09-05T14:40:32.740Z,19.70
2022-09-05T14:44:01.105Z,19.70
2022-09-05T14:47:06.456Z,19.70
2022-09-05T14:50:29.583Z,19.60
2022-09-05T14:57:23.287Z,19.70
2022-09-05T15:02:51.986Z,19.60
2022-09-05T15:03:02.423Z,19.70
2022-09-05T15:05:52.156Z,19.70
2022-09-05T15:11:24.362Z,19.90
2022-09-05T15:12:26.244Z,19.90
2022-09-05T15:15:18.254Z,19.90
2022-09-05T15:18:09.905Z,20.00
2022-09-05T15:21:33.893Z,20.00
2022-09-05T15:24:30.308Z,20.10
2022-09-05T15:27:19.095Z,20.00
2022-09-05T15:30:08.570Z,19.80
2022-09-05T15:33:17.087Z,19.80
2022-09-05T15:36:07.785Z,19.80
2022-09-05T15:38:58.406Z,19.70
2022-09-05T15:41:50.391Z,19.70
2022-09-05T15:44:59.594Z,19.70
2022-09-05T15:48:18.334Z,19.70
2022-09-05T15:51:18.191Z,19.70
2022-09-05T15:54:06.897Z,19.70
2022-09-05T15:57:06.147Z,19.60
2022-09-05T15:59:57.715Z,19.50
2022-09-05T16:02:50.072Z,19.50
2022-09-05T16:10:29.306Z,19.60
2022-09-05T16:10:41.145Z,19.50
2022-09-05T16:12:44.392Z,19.50
2022-09-05T16:18:35.574Z,19.50
2022-09-05T16:23:13.184Z,19.50
2022-09-05T16:23:34.072Z,19.40
2022-09-05T16:25:17.091Z,19.40
2022-09-05T16:28:12.928Z,19.40
2022-09-05T16:31:03.833Z,19.30
2022-09-05T16:33:53.536Z,19.40
2022-09-05T16:36:56.387Z,19.30
2022-09-05T16:40:08.819Z,19.30
2022-09-05T16:43:05.030Z,19.30
2022-09-05T16:46:00.460Z,19.30
2022-09-05T16:48:55.073Z,19.20
2022-09-05T16:51:50.403Z,19.10
2022-09-05T16:54:44.276Z,19.10
2022-09-05T16:57:35.765Z,19.00
2022-09-05T17:00:24.374Z,19.00
2022-09-05T17:03:28.406Z,19.00
2022-09-05T17:06:25.691Z,19.00
2022-09-05T17:09:22.988Z,19.00
2022-09-05T17:12:18.042Z,18.90
2022-09-05T17:15:14.769Z,19.00
2022-09-05T17:18:19.175Z,19.00
2022-09-05T17:21:38.876Z,18.90
2022-09-05T17:29:19.398Z,18.90
2022-09-05T17:29:49.093Z,18.80
2022-09-05T17:34:49.808Z,18.80
2022-09-05T17:38:11.633Z,18.80
2022-09-05T17:41:51.211Z,18.70
2022-09-05T17:44:53.103Z,18.70
2022-09-05T17:47:48.574Z,18.70
2022-09-05T17:50:54.132Z,18.70
2022-09-05T17:54:23.398Z,18.60
2022-09-05T17:57:37.849Z,18.60
2022-09-05T18:01:04.614Z,18.60
2022-09-05T18:04:08.379Z,18.50
2022-09-05T18:07:54.473Z,18.50
2022-09-05T18:11:13.955Z,18.50
2022-09-05T18:14:07.239Z,18.50
2022-09-05T18:17:37.511Z,18.40
2022-09-05T18:20:12.598Z,18.40
2022-09-05T18:23:39.685Z,18.30
2022-09-05T18:26:41.904Z,18.20
2022-09-05T18:29:58.914Z,18.30
2022-09-05T18:32:47.301Z,18.20
2022-09-05T18:35:50.711Z,18.30
2022-09-05T18:38:51.881Z,18.30
2022-09-05T18:41:45.320Z,18.20
2022-09-05T18:44:39.075Z,18.10
2022-09-05T18:47:33.983Z,18.20
2022-09-05T18:50:28.084Z,18.10
2022-09-05T18:53:25.410Z,18.00
2022-09-05T18:56:27.336Z,18.00
2022-09-05T18:59:24.288Z,17.90
2022-09-05T19:02:44.247Z,17.90
2022-09-05T19:05:40.439Z,17.80
2022-09-05T19:08:32.959Z,17.70
2022-09-05T19:11:27.771Z,17.70
2022-09-05T19:14:32.632Z,17.70
2022-09-05T19:17:27.385Z,17.70
2022-09-05T19:20:33.798Z,17.60
2022-09-05T19:23:27.469Z,17.60
2022-09-05T19:26:16.307Z,17.50
2022-09-05T19:32:59.820Z,17.50
2022-09-05T19:36:49.131Z,17.50
2022-09-05T19:36:54.919Z,17.40
2022-09-05T19:40:43.432Z,17.40
2022-09-05T19:47:41.871Z,17.30
2022-09-05T19:47:50.101Z,17.30
2022-09-05T19:51:16.830Z,17.20
2022-09-05T19:54:06.960Z,17.20
2022-09-05T19:57:00.420Z,17.10
2022-09-05T19:59:55.037Z,16.90
2022-09-05T20:02:46.489Z,16.80
2022-09-05T20:05:43.829Z,16.70
2022-09-05T20:08:36.308Z,16.80
2022-09-05T20:11:45.113Z,16.70
2022-09-05T20:14:36.914Z,16.60
2022-09-05T20:17:31.656Z,16.60
2022-09-05T20:20:25.440Z,16.50
2022-09-05T20:23:15.800Z,16.50
2022-09-05T20:26:04.681Z,16.40
2022-09-05T20:29:01.398Z,16.40
2022-09-05T20:31:51.183Z,16.40
2022-09-05T20:36:27.962Z,16.40
2022-09-05T20:43:09.934Z,16.20
2022-09-05T20:43:29.626Z,16.20
2022-09-05T20:44:22.469Z,16.20
2022-09-05T20:54:08.100Z,16.20
2022-09-05T20:54:22.769Z,16.10
2022-09-05T20:54:32.109Z,16.10
2022-09-05T20:56:56.701Z,16.00
2022-09-05T20:59:47.355Z,16.10
2022-09-05T21:02:36.341Z,15.90
2022-09-05T21:05:28.576Z,15.90
2022-09-05T21:08:34.134Z,15.90
2022-09-05T21:11:33.896Z,15.70
2022-09-05T21:14:25.204Z,15.70
2022-09-05T21:17:16.306Z,15.50
2022-09-05T21:20:10.515Z,15.50
2022-09-05T21:22:59.273Z,15.40
2022-09-05T21:25:52.174Z,15.30
2022-09-05T21:28:44.338Z,15.20
2022-09-05T21:31:43.877Z,15.30
2022-09-05T21:34:35.935Z,15.30
2022-09-05T21:37:25.367Z,15.30
2022-09-05T21:40:14.074Z,15.10
2022-09-05T21:47:33.271Z,15.10
2022-09-05T21:47:47.918Z,15.20
2022-09-05T21:49:23.140Z,15.30
2022-09-05T21:52:13.195Z,15.10
2022-09-05T21:59:18.060Z,15.20
2022-09-05T21:59:26.995Z,15.10
2022-09-05T22:01:51.163Z,15.00
2022-09-05T22:04:37.174Z,15.00
2022-09-05T22:07:32.270Z,15.00
2022-09-05T22:10:22.677Z,15.00
2022-09-05T22:13:24.521Z,14.70
2022-09-05T22:16:15.809Z,14.80
2022-09-05T22:19:04.630Z,14.90
2022-09-05T22:21:58.741Z,14.80
2022-09-05T22:24:51.509Z,14.70
2022-09-05T22:27:43.978Z,14.80
2022-09-05T22:30:32.610Z,14.70
2022-09-05T22:33:21.062Z,14.70
2022-09-05T22:36:09.586Z,14.60
2022-09-05T22:39:00.122Z,14.60
2022-09-05T22:41:48.860Z,14.60
2022-09-05T22:44:37.646Z,14.60
2022-09-05T22:47:27.086Z,14.70
2022-09-05T22:50:15.677Z,14.50
2022-09-05T22:53:07.059Z,14.50
2022-09-05T22:55:59.909Z,14.50
2022-09-05T22:58:48.376Z,14.40
2022-09-05T23:01:36.910Z,14.30
2022-09-05T23:04:25.904Z,14.40
2022-09-05T23:07:14.697Z,14.40
2022-09-05T23:10:04.101Z,14.50
2022-09-05T23:12:54.495Z,14.40
2022-09-05T23:15:42.983Z,14.40
2022-09-05T23:18:32.231Z,14.30
2022-09-05T23:21:21.010Z,14.20
2022-09-05T23:24:09.546Z,14.20
2022-09-05T23:26:58.154Z,14.30
2022-09-05T23:29:48.074Z,14.30
2022-09-05T23:32:36.554Z,14.30
2022-09-05T23:35:25.263Z,14.20
2022-09-05T23:38:13.750Z,14.20
2022-09-05T23:41:02.953Z,14.20
2022-09-05T23:43:51.459Z,14.00
2022-09-05T23:46:41.370Z,14.00
2022-09-05T23:49:30.324Z,13.90
2022-09-05T23:52:18.828Z,13.90
2022-09-05T23:55:08.388Z,14.00
2022-09-05T23:57:58.773Z,14.00
